createdAt,value
2019-03-24T00:00:11.838Z,95071.86
2019-03-24T00:02:40.528Z,95071.38
2019-03-24T00:05:09.141Z,95076.43
2019-03-24T00:07:37.887Z,95071.20
2019-03-24T00:10:07.899Z,95072.09
2019-03-24T00:12:36.565Z,95065.17
2019-03-24T00:15:08.229Z,95070.72
2019-03-24T00:17:36.904Z,95067.98
2019-03-24T00:20:10.244Z,95069.41
2019-03-24T00:22:38.872Z,95068.01
2019-03-24T00:25:07.690Z,95066.69
2019-03-24T00:27:36.391Z,95063.35
2019-03-24T00:30:07.275Z,95071.02
2019-03-24T00:32:35.875Z,95064.69
2019-03-24T00:35:06.553Z,95068.30
2019-03-24T00:37:35.209Z,95066.52
2019-03-24T00:40:05.395Z,95063.11
2019-03-24T00:42:34.014Z,95064.80
2019-03-24T00:45:02.660Z,95068.88
2019-03-24T00:47:31.290Z,95060.66
2019-03-24T00:49:59.978Z,95056.15
2019-03-24T00:52:28.576Z,95057.13
2019-03-24T00:54:57.266Z,95057.44
2019-03-24T00:57:25.933Z,95060.69
2019-03-24T00:59:54.614Z,95055.27
2019-03-24T01:02:23.227Z,95060.06
2019-03-24T01:04:51.842Z,95055.45
2019-03-24T01:07:20.491Z,95059.77
2019-03-24T01:09:49.163Z,95049.80
2019-03-24T01:12:17.772Z,95056.21
2019-03-24T01:14:46.457Z,95046.16
2019-03-24T01:17:15.081Z,95047.63
2019-03-24T01:19:43.690Z,95040.83
2019-03-24T01:22:12.367Z,95035.28
2019-03-24T01:24:41.052Z,95034.66
2019-03-24T01:27:09.663Z,95035.42
2019-03-24T01:29:38.336Z,95033.58
2019-03-24T01:32:06.992Z,95030.08
2019-03-24T01:34:35.650Z,95030.08
2019-03-24T01:37:04.328Z,95023.52
2019-03-24T01:39:32.944Z,95013.06
2019-03-24T01:42:01.632Z,95020.06
2019-03-24T01:44:30.239Z,95017.49
2019-03-24T01:46:58.910Z,95013.73
2019-03-24T01:49:27.582Z,95014.20
2019-03-24T01:51:56.189Z,95009.59
2019-03-24T01:54:24.970Z,95020.43
2019-03-24T01:56:53.707Z,95014.89
2019-03-24T01:59:22.414Z,95012.66
2019-03-24T02:01:51.080Z,95012.60
2019-03-24T02:04:19.772Z,95014.13
2019-03-24T02:06:48.451Z,95005.82
2019-03-24T02:09:17.130Z,95004.64
2019-03-24T02:11:45.781Z,94999.04
2019-03-24T02:14:14.421Z,94999.08
2019-03-24T02:16:43.109Z,94991.95
2019-03-24T02:19:11.783Z,94996.81
2019-03-24T02:21:40.453Z,95002.16
2019-03-24T02:24:09.064Z,95002.08
2019-03-24T02:26:37.732Z,94996.89
2019-03-24T02:29:06.336Z,94998.28
2019-03-24T02:31:34.987Z,94999.60
2019-03-24T02:34:03.656Z,94993.58
2019-03-24T02:36:32.389Z,94999.60
2019-03-24T02:39:01.058Z,94990.11
2019-03-24T02:41:29.701Z,94990.67
2019-03-24T02:43:58.400Z,94993.05
2019-03-24T02:46:27.079Z,94993.47
2019-03-24T02:48:55.757Z,94986.27
2019-03-24T02:51:24.359Z,94987.59
2019-03-24T02:53:53.040Z,94983.23
2019-03-24T02:56:21.771Z,94986.50
2019-03-24T02:58:50.412Z,94985.44
2019-03-24T03:01:19.090Z,94986.03
2019-03-24T03:03:47.695Z,94981.56
2019-03-24T03:06:16.361Z,94973.45
2019-03-24T03:08:45.043Z,94980.77
2019-03-24T03:11:13.710Z,94972.84
2019-03-24T03:13:42.433Z,94977.48
2019-03-24T03:16:11.040Z,94981.28
2019-03-24T03:18:39.807Z,94990.34
2019-03-24T03:21:08.418Z,94988.78
2019-03-24T03:23:37.093Z,94982.73
2019-03-24T03:26:05.763Z,94980.79
2019-03-24T03:28:34.404Z,94985.48
2019-03-24T03:31:03.181Z,94977.98
2019-03-24T03:33:31.884Z,94973.72
2019-03-24T03:36:00.654Z,94972.67
2019-03-24T03:38:29.345Z,94971.40
2019-03-24T03:40:58.156Z,94971.88
2019-03-24T03:43:26.918Z,94969.95
2019-03-24T03:45:55.617Z,94977.20
2019-03-24T03:48:24.295Z,94975.92
2019-03-24T03:50:53.094Z,94976.95
2019-03-24T03:53:21.761Z,94979.70
2019-03-24T03:55:50.371Z,94977.41
2019-03-24T03:58:19.045Z,94969.59
2019-03-24T04:00:47.724Z,94974.88
2019-03-24T04:03:16.336Z,94975.41
2019-03-24T04:05:45.008Z,94973.13
2019-03-24T04:08:13.685Z,94973.84
2019-03-24T04:10:42.386Z,94973.33
2019-03-24T04:13:11.013Z,94969.56
2019-03-24T04:15:39.775Z,94969.56
2019-03-24T04:18:08.450Z,94966.73
2019-03-24T04:20:37.122Z,94956.93
2019-03-24T04:23:05.732Z,94955.02
2019-03-24T04:25:34.399Z,94955.16
2019-03-24T04:28:03.039Z,94952.05
2019-03-24T04:30:31.731Z,94954.59
2019-03-24T04:33:00.348Z,94954.82
2019-03-24T04:35:29.014Z,94956.22
2019-03-24T04:37:57.702Z,94957.91
2019-03-24T04:40:26.307Z,94961.22
2019-03-24T04:42:54.977Z,94963.09
2019-03-24T04:45:23.667Z,94963.59
2019-03-24T04:47:52.352Z,94958.27
2019-03-24T04:50:21.166Z,94959.48
2019-03-24T04:52:49.833Z,94958.05
2019-03-24T04:55:18.513Z,94955.48
2019-03-24T04:57:47.304Z,94961.08
2019-03-24T05:00:16.400Z,94957.19
2019-03-24T05:02:46.112Z,94957.59
2019-03-24T05:05:14.794Z,94956.37
2019-03-24T05:07:43.586Z,94956.59
2019-03-24T05:10:15.344Z,94959.21
2019-03-24T05:12:44.033Z,94971.92
2019-03-24T05:15:12.719Z,94966.06
2019-03-24T05:17:41.391Z,94971.78
2019-03-24T05:20:10.107Z,94977.92
2019-03-24T05:22:38.785Z,94975.27
2019-03-24T05:25:07.392Z,94968.10
2019-03-24T05:27:36.061Z,94965.94
2019-03-24T05:30:06.846Z,94971.17
2019-03-24T05:32:35.514Z,94966.45
2019-03-24T05:35:05.838Z,94965.55
2019-03-24T05:37:34.833Z,94964.99
2019-03-24T05:40:04.410Z,94965.06
2019-03-24T05:42:33.071Z,94953.07
2019-03-24T05:45:02.275Z,94954.84
2019-03-24T05:47:37.128Z,94947.59
2019-03-24T05:50:01.413Z,94955.80
2019-03-24T05:52:30.228Z,94957.16
2019-03-24T05:54:59.223Z,94957.45
2019-03-24T05:57:30.404Z,94961.94
2019-03-24T05:59:59.173Z,94958.66
2019-03-24T06:02:27.969Z,94967.17
2019-03-24T06:04:57.133Z,94956.61
2019-03-24T06:07:25.858Z,94964.27
2019-03-24T06:09:54.683Z,94959.70
2019-03-24T06:12:23.583Z,94958.42
2019-03-24T06:14:52.375Z,94952.17
2019-03-24T06:17:21.141Z,94951.03
2019-03-24T06:19:49.943Z,94948.09
2019-03-24T06:22:18.626Z,94941.50
2019-03-24T06:24:47.347Z,94949.03
2019-03-24T06:27:16.128Z,94942.36
2019-03-24T06:29:45.612Z,94939.06
2019-03-24T06:32:14.259Z,94943.34
2019-03-24T06:34:42.975Z,94935.27
2019-03-24T06:37:11.763Z,94926.17
2019-03-24T06:39:40.422Z,94927.28
2019-03-24T06:42:09.112Z,94921.70
2019-03-24T06:44:37.796Z,94920.74
2019-03-24T06:47:06.483Z,94912.23
2019-03-24T06:49:35.112Z,94912.98
2019-03-24T06:52:03.799Z,94908.86
2019-03-24T06:54:32.474Z,94906.42
2019-03-24T06:57:01.111Z,94909.12
2019-03-24T06:59:29.745Z,94909.59
2019-03-24T07:02:00.019Z,94905.34
2019-03-24T07:04:28.803Z,94899.14
2019-03-24T07:06:57.459Z,94895.11
2019-03-24T07:09:26.159Z,94895.59
2019-03-24T07:11:54.820Z,94899.09
2019-03-24T07:14:23.552Z,94887.13
2019-03-24T07:16:52.281Z,94892.98
2019-03-24T07:19:20.972Z,94891.17
2019-03-24T07:21:55.740Z,94887.63
2019-03-24T07:24:24.421Z,94884.59
2019-03-24T07:26:53.231Z,94874.59
2019-03-24T07:29:21.929Z,94877.55
2019-03-24T07:31:52.119Z,94876.34
2019-03-24T07:34:20.817Z,94866.03
2019-03-24T07:36:49.515Z,94870.08
2019-03-24T07:39:19.510Z,94864.42
2019-03-24T07:41:48.162Z,94860.01
2019-03-24T07:44:18.422Z,94853.67
2019-03-24T07:46:48.647Z,94846.95
2019-03-24T07:49:17.357Z,94845.64
2019-03-24T07:51:45.969Z,94844.36
2019-03-24T07:54:14.642Z,94827.27
2019-03-24T07:56:43.322Z,94831.00
2019-03-24T07:59:12.012Z,94829.94
2019-03-24T08:01:40.691Z,94827.39
2019-03-24T08:04:09.316Z,94818.84
2019-03-24T08:06:38.002Z,94812.10
2019-03-24T08:09:07.583Z,94814.46
2019-03-24T08:11:36.276Z,94800.51
2019-03-24T08:14:04.889Z,94795.39
2019-03-24T08:16:36.577Z,94785.95
2019-03-24T08:19:05.193Z,94781.53
2019-03-24T08:21:39.738Z,94771.40
2019-03-24T08:24:08.374Z,94773.16
2019-03-24T08:26:37.050Z,94772.39
2019-03-24T08:29:05.983Z,94770.63
2019-03-24T08:31:34.649Z,94770.42
2019-03-24T08:34:03.372Z,94762.00
2019-03-24T08:36:32.014Z,94758.78
2019-03-24T08:39:00.695Z,94756.23
2019-03-24T08:41:30.991Z,94741.59
2019-03-24T08:44:01.188Z,94735.67
2019-03-24T08:46:30.053Z,94734.56
2019-03-24T08:48:58.738Z,94727.41
2019-03-24T08:51:27.421Z,94718.55
2019-03-24T08:53:56.024Z,94719.30
2019-03-24T08:56:24.772Z,94711.06
2019-03-24T08:58:53.376Z,94708.91
2019-03-24T09:01:23.561Z,94709.56
2019-03-24T09:03:52.289Z,94707.95
2019-03-24T09:06:21.014Z,94689.91
2019-03-24T09:08:49.684Z,94688.30
2019-03-24T09:11:18.354Z,94691.53
2019-03-24T09:13:49.359Z,94685.26
2019-03-24T09:16:17.983Z,94678.58
2019-03-24T09:18:52.608Z,94675.16
2019-03-24T09:21:19.508Z,94668.14
2019-03-24T09:23:47.471Z,94666.74
2019-03-24T09:26:16.156Z,94661.71
2019-03-24T09:28:44.801Z,94657.91
2019-03-24T09:31:13.485Z,94652.03
2019-03-24T09:33:42.129Z,94650.31
2019-03-24T09:36:10.827Z,94644.78
2019-03-24T09:38:42.530Z,94643.72
2019-03-24T09:41:11.213Z,94635.20
2019-03-24T09:43:39.915Z,94629.73
2019-03-24T09:46:08.599Z,94626.61
2019-03-24T09:48:40.159Z,94616.12
2019-03-24T09:51:08.935Z,94617.56
2019-03-24T09:53:38.598Z,94611.89
2019-03-24T09:56:07.259Z,94608.67
2019-03-24T09:58:37.431Z,94611.23
2019-03-24T10:01:06.138Z,94603.63
2019-03-24T10:03:37.486Z,94601.38
2019-03-24T10:06:06.211Z,94594.18
2019-03-24T10:08:46.604Z,94580.84
2019-03-24T10:11:06.857Z,94574.52
2019-03-24T10:13:39.669Z,94572.86
2019-03-24T10:16:08.288Z,94567.27
2019-03-24T10:18:37.009Z,94561.52
2019-03-24T10:21:07.257Z,94556.95
2019-03-24T10:23:38.810Z,94554.09
2019-03-24T10:26:07.813Z,94540.98
2019-03-24T10:28:39.607Z,94539.36
2019-03-24T10:31:08.320Z,94537.73
2019-03-24T10:33:36.934Z,94528.72
2019-03-24T10:36:05.639Z,94529.14
2019-03-24T10:38:34.295Z,94526.25
2019-03-24T10:41:03.089Z,94527.76
2019-03-24T10:43:34.504Z,94515.75
2019-03-24T10:46:03.099Z,94511.99
2019-03-24T10:48:36.050Z,94510.80
2019-03-24T10:51:04.707Z,94509.30
2019-03-24T10:53:33.384Z,94503.96
2019-03-24T10:56:02.000Z,94493.66
2019-03-24T10:58:30.688Z,94490.73
2019-03-24T11:00:59.381Z,94489.73
2019-03-24T11:03:31.096Z,94493.07
2019-03-24T11:05:59.759Z,94483.75
2019-03-24T11:08:30.043Z,94485.31
2019-03-24T11:10:58.671Z,94475.48
2019-03-24T11:13:30.223Z,94470.32
2019-03-24T11:15:59.725Z,94472.70
2019-03-24T11:18:28.675Z,94465.43
2019-03-24T11:20:57.293Z,94462.88
2019-03-24T11:23:28.743Z,94461.33
2019-03-24T11:25:57.416Z,94452.69
2019-03-24T11:28:26.056Z,94448.55
2019-03-24T11:30:56.879Z,94447.64
2019-03-24T11:33:29.488Z,94447.33
2019-03-24T11:35:57.488Z,94436.12
2019-03-24T11:38:27.605Z,94430.36
2019-03-24T11:40:56.304Z,94428.03
2019-03-24T11:43:24.928Z,94418.74
2019-03-24T11:45:53.686Z,94414.59
2019-03-24T11:48:24.016Z,94403.23
2019-03-24T11:50:54.437Z,94404.31
2019-03-24T11:53:23.166Z,94397.72
2019-03-24T11:55:51.894Z,94388.49
2019-03-24T11:58:20.651Z,94391.39
2019-03-24T12:00:49.286Z,94380.34
2019-03-24T12:03:18.007Z,94379.02
2019-03-24T12:05:46.727Z,94373.44
2019-03-24T12:08:16.489Z,94364.38
2019-03-24T12:10:45.352Z,94362.05
2019-03-24T12:13:18.920Z,94348.13
2019-03-24T12:15:47.645Z,94343.17
2019-03-24T12:18:21.012Z,94338.33
2019-03-24T12:20:49.698Z,94334.17
2019-03-24T12:23:21.379Z,94333.80
2019-03-24T12:25:50.086Z,94329.97
2019-03-24T12:28:18.791Z,94320.95
2019-03-24T12:30:47.401Z,94314.05
2019-03-24T12:33:17.600Z,94313.27
2019-03-24T12:35:46.288Z,94307.22
2019-03-24T12:38:14.987Z,94304.16
2019-03-24T12:40:43.613Z,94289.52
2019-03-24T12:43:19.624Z,94289.25
2019-03-24T12:45:46.991Z,94286.02
2019-03-24T12:48:15.779Z,94279.39
2019-03-24T12:50:45.974Z,94272.11
2019-03-24T12:53:16.094Z,94267.81
2019-03-24T12:55:44.783Z,94265.70
2019-03-24T12:58:13.427Z,94262.97
2019-03-24T13:00:42.082Z,94267.52
2019-03-24T13:03:15.356Z,94265.67
2019-03-24T13:05:43.977Z,94260.70
2019-03-24T13:08:17.648Z,94256.29
2019-03-24T13:10:47.045Z,94257.41
2019-03-24T13:13:18.643Z,94248.23
2019-03-24T13:15:50.215Z,94248.44
2019-03-24T13:18:18.825Z,94247.59
2019-03-24T13:20:47.513Z,94237.34
2019-03-24T13:23:16.133Z,94233.70
2019-03-24T13:25:44.750Z,94228.60
2019-03-24T13:28:13.454Z,94225.34
2019-03-24T13:30:42.063Z,94229.75
2019-03-24T13:33:10.715Z,94226.99
2019-03-24T13:35:39.371Z,94222.20
2019-03-24T13:38:08.050Z,94219.38
2019-03-24T13:40:36.741Z,94205.23
2019-03-24T13:43:05.381Z,94213.50
2019-03-24T13:45:33.994Z,94214.55
2019-03-24T13:48:02.708Z,94209.16
2019-03-24T13:50:31.983Z,94204.77
2019-03-24T13:53:00.812Z,94194.83
2019-03-24T13:55:29.429Z,94188.86
2019-03-24T13:57:58.206Z,94185.80
2019-03-24T14:00:26.818Z,94186.28
2019-03-24T14:02:55.465Z,94179.11
2019-03-24T14:05:24.101Z,94176.34
2019-03-24T14:07:52.805Z,94177.73
2019-03-24T14:10:21.512Z,94176.63
2019-03-24T14:12:50.318Z,94174.20
2019-03-24T14:15:19.084Z,94173.67
2019-03-24T14:17:47.802Z,94176.65
2019-03-24T14:20:17.969Z,94167.72
2019-03-24T14:22:46.644Z,94167.63
2019-03-24T14:25:15.282Z,94160.72
2019-03-24T14:27:43.967Z,94157.91
2019-03-24T14:30:13.155Z,94157.46
2019-03-24T14:32:41.774Z,94153.34
2019-03-24T14:35:10.562Z,94155.18
2019-03-24T14:37:39.181Z,94152.88
2019-03-24T14:40:08.602Z,94146.02
2019-03-24T14:42:37.254Z,94141.55
2019-03-24T14:45:10.121Z,94137.64
2019-03-24T14:47:38.801Z,94134.66
2019-03-24T14:50:07.915Z,94140.52
2019-03-24T14:52:36.582Z,94134.57
2019-03-24T14:55:06.525Z,94135.44
2019-03-24T14:57:35.209Z,94142.03
2019-03-24T15:00:05.837Z,94144.73
2019-03-24T15:02:34.497Z,94134.70
2019-03-24T15:05:03.187Z,94134.42
2019-03-24T15:07:31.824Z,94133.14
2019-03-24T15:10:00.471Z,94130.58
2019-03-24T15:12:29.186Z,94138.47
2019-03-24T15:14:57.887Z,94133.94
2019-03-24T15:17:26.520Z,94134.73
2019-03-24T15:19:55.196Z,94133.76
2019-03-24T15:22:23.819Z,94134.13
2019-03-24T15:24:52.498Z,94140.66
2019-03-24T15:27:21.122Z,94134.08
2019-03-24T15:29:49.781Z,94141.72
2019-03-24T15:32:18.492Z,94136.46
2019-03-24T15:34:47.108Z,94136.14
2019-03-24T15:37:15.796Z,94138.48
2019-03-24T15:39:45.984Z,94138.33
2019-03-24T15:42:14.681Z,94143.35
2019-03-24T15:44:43.316Z,94147.73
2019-03-24T15:47:12.035Z,94135.66
2019-03-24T15:49:40.659Z,94139.94
2019-03-24T15:52:10.868Z,94142.77
2019-03-24T15:54:39.596Z,94143.73
2019-03-24T15:57:08.261Z,94138.94
2019-03-24T15:59:36.970Z,94130.22
2019-03-24T16:02:05.606Z,94136.81
2019-03-24T16:04:34.221Z,94142.66
2019-03-24T16:07:02.965Z,94139.55
2019-03-24T16:09:31.574Z,94143.77
2019-03-24T16:12:00.269Z,94145.45
2019-03-24T16:14:28.966Z,94150.36
2019-03-24T16:16:57.602Z,94147.36
2019-03-24T16:19:28.558Z,94153.66
2019-03-24T16:21:56.693Z,94154.04
2019-03-24T16:24:25.293Z,94154.74
2019-03-24T16:26:53.984Z,94151.38
2019-03-24T16:29:22.611Z,94151.93
2019-03-24T16:31:51.292Z,94149.97
2019-03-24T16:34:20.006Z,94144.95
2019-03-24T16:36:48.691Z,94146.09
2019-03-24T16:39:17.341Z,94142.81
2019-03-24T16:41:45.997Z,94149.41
2019-03-24T16:44:14.661Z,94144.91
2019-03-24T16:46:43.290Z,94155.84
2019-03-24T16:49:12.002Z,94158.05
2019-03-24T16:51:41.660Z,94161.63
2019-03-24T16:54:10.646Z,94161.71
2019-03-24T16:56:39.331Z,94164.06
2019-03-24T16:59:08.031Z,94161.11
2019-03-24T17:01:36.652Z,94166.11
2019-03-24T17:04:05.365Z,94170.19
2019-03-24T17:06:34.044Z,94173.63
2019-03-24T17:09:02.747Z,94173.23
2019-03-24T17:11:31.372Z,94177.84
2019-03-24T17:14:00.043Z,94176.92
2019-03-24T17:16:28.703Z,94181.22
2019-03-24T17:18:57.376Z,94177.38
2019-03-24T17:21:26.051Z,94188.64
2019-03-24T17:23:54.738Z,94198.03
2019-03-24T17:26:23.453Z,94198.70
2019-03-24T17:28:52.132Z,94203.00
2019-03-24T17:31:20.889Z,94210.03
2019-03-24T17:33:49.572Z,94212.20
2019-03-24T17:36:18.189Z,94218.39
2019-03-24T17:38:46.912Z,94215.94
2019-03-24T17:41:15.533Z,94221.03
2019-03-24T17:43:44.344Z,94221.48
2019-03-24T17:46:13.003Z,94229.36
2019-03-24T17:48:41.725Z,94235.12
2019-03-24T17:51:10.419Z,94236.38
2019-03-24T17:53:42.125Z,94247.61
2019-03-24T17:56:10.816Z,94254.93
2019-03-24T17:58:39.460Z,94262.05
2019-03-24T18:01:08.295Z,94258.72
2019-03-24T18:03:36.922Z,94263.22
2019-03-24T18:06:05.606Z,94266.79
2019-03-24T18:08:34.452Z,94274.03
2019-03-24T18:11:03.427Z,94274.74
2019-03-24T18:13:32.219Z,94288.81
2019-03-24T18:16:01.138Z,94284.74
2019-03-24T18:18:29.872Z,94292.30
2019-03-24T18:20:58.507Z,94290.00
2019-03-24T18:23:27.232Z,94296.67
2019-03-24T18:25:55.877Z,94294.34
2019-03-24T18:28:24.537Z,94304.88
2019-03-24T18:30:53.236Z,94307.58
2019-03-24T18:33:22.291Z,94309.89
2019-03-24T18:35:50.924Z,94311.27
2019-03-24T18:38:19.594Z,94309.27
2019-03-24T18:40:49.806Z,94314.66
2019-03-24T18:43:18.472Z,94317.69
2019-03-24T18:45:47.184Z,94318.08
2019-03-24T18:48:17.389Z,94320.65
2019-03-24T18:50:46.620Z,94318.36
2019-03-24T18:53:15.355Z,94320.18
2019-03-24T18:55:44.039Z,94329.52
2019-03-24T18:58:12.690Z,94330.05
2019-03-24T19:00:43.059Z,94326.34
2019-03-24T19:03:11.688Z,94332.16
2019-03-24T19:05:40.318Z,94329.63
2019-03-24T19:08:10.198Z,94339.30
2019-03-24T19:10:38.961Z,94334.64
2019-03-24T19:13:07.596Z,94343.43
2019-03-24T19:15:37.484Z,94343.23
2019-03-24T19:18:06.506Z,94341.88
2019-03-24T19:20:35.149Z,94339.27
2019-03-24T19:23:03.864Z,94347.61
2019-03-24T19:25:33.091Z,94345.47
2019-03-24T19:28:03.467Z,94343.73
2019-03-24T19:30:37.262Z,94344.32
2019-03-24T19:33:06.578Z,94349.25
2019-03-24T19:35:35.322Z,94349.61
2019-03-24T19:38:04.148Z,94357.05
2019-03-24T19:40:34.888Z,94355.23
2019-03-24T19:43:03.596Z,94351.05
2019-03-24T19:45:32.370Z,94350.38
2019-03-24T19:48:01.165Z,94351.25
2019-03-24T19:50:30.327Z,94351.08
2019-03-24T19:52:58.957Z,94361.81
2019-03-24T19:55:27.863Z,94354.37
2019-03-24T19:57:56.498Z,94355.56
2019-03-24T20:00:25.702Z,94361.03
2019-03-24T20:02:54.349Z,94356.46
2019-03-24T20:05:23.161Z,94358.16
2019-03-24T20:07:51.932Z,94357.45
2019-03-24T20:10:20.582Z,94357.25
2019-03-24T20:12:49.295Z,94354.48
2019-03-24T20:15:18.179Z,94357.44
2019-03-24T20:17:46.828Z,94355.64
2019-03-24T20:20:15.668Z,94359.03
2019-03-24T20:22:55.575Z,94362.13
2019-03-24T20:25:14.756Z,94356.95
2019-03-24T20:27:43.470Z,94360.63
2019-03-24T20:30:12.438Z,94357.73
2019-03-24T20:32:41.139Z,94352.06
2019-03-24T20:35:09.827Z,94358.83
2019-03-24T20:37:38.479Z,94355.05
2019-03-24T20:40:07.420Z,94358.53
2019-03-24T20:42:36.467Z,94364.28
2019-03-24T20:45:07.268Z,94361.00
2019-03-24T20:47:36.050Z,94359.33
2019-03-24T20:50:06.685Z,94360.92
2019-03-24T20:52:35.365Z,94362.11
2019-03-24T20:55:08.174Z,94352.34
2019-03-24T20:57:36.965Z,94353.84
2019-03-24T21:00:07.567Z,94354.92
2019-03-24T21:02:37.790Z,94355.99
2019-03-24T21:05:06.931Z,94342.47
2019-03-24T21:07:35.553Z,94345.06
2019-03-24T21:10:06.730Z,94339.84
2019-03-24T21:12:35.587Z,94339.34
2019-03-24T21:15:06.574Z,94340.70
2019-03-24T21:17:35.284Z,94342.38
2019-03-24T21:20:05.214Z,94341.80
2019-03-24T21:22:33.917Z,94341.32
2019-03-24T21:25:02.577Z,94331.17
2019-03-24T21:27:31.250Z,94335.05
2019-03-24T21:29:59.929Z,94325.63
2019-03-24T21:32:28.770Z,94324.34
2019-03-24T21:34:57.490Z,94323.34
2019-03-24T21:37:26.123Z,94322.05
2019-03-24T21:39:54.790Z,94320.31
2019-03-24T21:42:23.407Z,94333.29
2019-03-24T21:44:52.089Z,94327.75
2019-03-24T21:47:20.702Z,94330.41
2019-03-24T21:49:49.382Z,94326.23
2019-03-24T21:52:18.041Z,94325.08
2019-03-24T21:54:46.713Z,94332.22
2019-03-24T21:57:15.351Z,94325.39
2019-03-24T21:59:44.009Z,94326.61
2019-03-24T22:02:12.770Z,94321.52
2019-03-24T22:04:41.442Z,94331.48
2019-03-24T22:07:10.141Z,94318.27
2019-03-24T22:09:38.788Z,94312.95
2019-03-24T22:12:07.450Z,94317.20
2019-03-24T22:14:36.070Z,94315.73
2019-03-24T22:17:04.768Z,94316.84
2019-03-24T22:19:33.382Z,94313.05
2019-03-24T22:22:02.076Z,94317.98
2019-03-24T22:24:30.712Z,94320.80
2019-03-24T22:26:59.400Z,94320.20
2019-03-24T22:29:28.016Z,94320.11
2019-03-24T22:31:56.731Z,94319.05
2019-03-24T22:34:25.386Z,94312.25
2019-03-24T22:36:55.844Z,94306.44
2019-03-24T22:39:24.458Z,94311.22
2019-03-24T22:41:53.156Z,94313.27
2019-03-24T22:44:21.802Z,94307.16
2019-03-24T22:46:50.431Z,94304.42
2019-03-24T22:49:19.132Z,94296.95
2019-03-24T22:51:47.833Z,94295.14
2019-03-24T22:54:16.526Z,94307.61
2019-03-24T22:56:45.228Z,94296.98
2019-03-24T22:59:13.922Z,94294.20
2019-03-24T23:01:42.534Z,94294.63
2019-03-24T23:04:11.218Z,94286.54
2019-03-24T23:06:39.841Z,94280.88
2019-03-24T23:09:09.329Z,94286.11
2019-03-24T23:11:37.949Z,94275.69
2019-03-24T23:14:06.564Z,94277.73
2019-03-24T23:16:35.244Z,94275.20
2019-03-24T23:19:03.964Z,94275.02
2019-03-24T23:21:32.636Z,94272.62
2019-03-24T23:24:01.258Z,94266.73
2019-03-24T23:26:29.980Z,94262.32
2019-03-24T23:28:58.605Z,94260.45
2019-03-24T23:31:27.206Z,94266.66
2019-03-24T23:33:55.885Z,94259.25
2019-03-24T23:36:24.610Z,94252.17
2019-03-24T23:38:53.224Z,94248.91
2019-03-24T23:41:21.902Z,94246.66
2019-03-24T23:43:50.612Z,94239.34
2019-03-24T23:46:19.238Z,94238.68
2019-03-24T23:48:47.906Z,94242.29
2019-03-24T23:51:17.126Z,94239.98
2019-03-24T23:53:45.808Z,94234.33
2019-03-24T23:56:14.495Z,94230.52
2019-03-24T23:58:43.117Z,94226.88
